sensor_id;sensor_type;location;lat;lon;timestamp;pressure;altitude;pressure_sealevel;temperature;humidity
41254;BME280;26987;59.928;30.306;2022-12-07T00:02:09;101101.75;;;-5.13;88.93
41254;BME280;26987;59.928;30.306;2022-12-07T00:04:37;101107.75;;;-5.11;88.75
41254;BME280;26987;59.928;30.306;2022-12-07T00:07:04;101113.94;;;-5.12;88.72
41254;BME280;26987;59.928;30.306;2022-12-07T00:09:32;101105.88;;;-5.24;89.83
41254;BME280;26987;59.928;30.306;2022-12-07T00:12:00;101123.34;;;-5.10;90.28
41254;BME280;26987;59.928;30.306;2022-12-07T00:14:27;101135.03;;;-5.01;90.15
41254;BME280;26987;59.928;30.306;2022-12-07T00:16:55;101106.44;;;-5.04;89.73
41254;BME280;26987;59.928;30.306;2022-12-07T00:19:24;101114.25;;;-4.89;89.54
41254;BME280;26987;59.928;30.306;2022-12-07T00:21:52;101117.63;;;-4.87;89.21
41254;BME280;26987;59.928;30.306;2022-12-07T00:24:19;101115.38;;;-4.79;88.65
41254;BME280;26987;59.928;30.306;2022-12-07T00:26:47;101116.28;;;-4.80;88.91
41254;BME280;26987;59.928;30.306;2022-12-07T00:29:17;101091.66;;;-4.90;88.58
41254;BME280;26987;59.928;30.306;2022-12-07T00:31:45;101110.13;;;-4.79;88.93
41254;BME280;26987;59.928;30.306;2022-12-07T00:34:15;101110.34;;;-4.82;89.03
41254;BME280;26987;59.928;30.306;2022-12-07T00:36:44;101109.91;;;-4.76;89.08
41254;BME280;26987;59.928;30.306;2022-12-07T00:39:12;101083.25;;;-4.96;88.99
41254;BME280;26987;59.928;30.306;2022-12-07T00:41:40;101110.88;;;-4.77;88.62
41254;BME280;26987;59.928;30.306;2022-12-07T00:44:08;101109.09;;;-4.76;89.91
41254;BME280;26987;59.928;30.306;2022-12-07T00:46:36;101102.72;;;-4.72;89.36
41254;BME280;26987;59.928;30.306;2022-12-07T00:49:04;101104.41;;;-4.71;88.81
41254;BME280;26987;59.928;30.306;2022-12-07T00:51:31;101097.59;;;-4.74;89.26
41254;BME280;26987;59.928;30.306;2022-12-07T00:54:00;101108.53;;;-4.67;89.67
41254;BME280;26987;59.928;30.306;2022-12-07T00:56:29;101088.56;;;-4.83;89.22
41254;BME280;26987;59.928;30.306;2022-12-07T00:58:58;101095.06;;;-4.75;89.11
41254;BME280;26987;59.928;30.306;2022-12-07T01:01:28;101119.22;;;-4.57;89.33
41254;BME280;26987;59.928;30.306;2022-12-07T01:03:56;101107.09;;;-4.58;88.57
41254;BME280;26987;59.928;30.306;2022-12-07T01:06:24;101121.84;;;-4.57;88.51
41254;BME280;26987;59.928;30.306;2022-12-07T01:08:53;101111.19;;;-4.54;88.76
41254;BME280;26987;59.928;30.306;2022-12-07T01:11:23;101120.09;;;-4.57;89.18
41254;BME280;26987;59.928;30.306;2022-12-07T01:13:52;101121.09;;;-4.59;89.17
41254;BME280;26987;59.928;30.306;2022-12-07T01:16:21;101085.66;;;-4.78;89.00
41254;BME280;26987;59.928;30.306;2022-12-07T01:18:51;101113.81;;;-4.54;89.42
41254;BME280;26987;59.928;30.306;2022-12-07T01:21:21;101115.28;;;-4.50;88.62
41254;BME280;26987;59.928;30.306;2022-12-07T01:23:49;101121.16;;;-4.46;88.99
41254;BME280;26987;59.928;30.306;2022-12-07T01:26:19;101083.72;;;-4.61;88.83
41254;BME280;26987;59.928;30.306;2022-12-07T01:28:49;101108.59;;;-4.41;88.21
41254;BME280;26987;59.928;30.306;2022-12-07T01:31:19;101107.69;;;-4.40;88.02
41254;BME280;26987;59.928;30.306;2022-12-07T01:33:48;101103.25;;;-4.39;87.59
41254;BME280;26987;59.928;30.306;2022-12-07T01:36:18;101085.53;;;-4.49;87.52
41254;BME280;26987;59.928;30.306;2022-12-07T01:38:48;101090.03;;;-4.51;88.16
41254;BME280;26987;59.928;30.306;2022-12-07T01:41:18;101105.88;;;-4.39;87.71
41254;BME280;26987;59.928;30.306;2022-12-07T01:44:12;101101.09;;;-4.33;87.86
41254;BME280;26987;59.928;30.306;2022-12-07T01:46:41;101101.91;;;-4.32;87.35
41254;BME280;26987;59.928;30.306;2022-12-07T01:49:12;101095.66;;;-4.29;87.14
41254;BME280;26987;59.928;30.306;2022-12-07T01:51:42;101103.63;;;-4.31;86.78
41254;BME280;26987;59.928;30.306;2022-12-07T01:54:11;101091.88;;;-4.38;87.96
41254;BME280;26987;59.928;30.306;2022-12-07T01:56:44;101106.34;;;-4.33;87.83
41254;BME280;26987;59.928;30.306;2022-12-07T01:59:16;101094.16;;;-4.34;88.57
41254;BME280;26987;59.928;30.306;2022-12-07T02:01:45;101094.28;;;-4.35;88.56
41254;BME280;26987;59.928;30.306;2022-12-07T02:04:12;101097.50;;;-4.45;88.20
41254;BME280;26987;59.928;30.306;2022-12-07T02:06:41;101080.16;;;-4.60;88.43
41254;BME280;26987;59.928;30.306;2022-12-07T02:09:10;101094.31;;;-4.50;89.21
41254;BME280;26987;59.928;30.306;2022-12-07T02:11:38;101097.91;;;-4.51;90.05
41254;BME280;26987;59.928;30.306;2022-12-07T02:14:07;101070.28;;;-4.70;90.24
41254;BME280;26987;59.928;30.306;2022-12-07T02:16:42;101102.75;;;-4.45;91.13
41254;BME280;26987;59.928;30.306;2022-12-07T02:22:38;101094.78;;;-4.43;91.84
41254;BME280;26987;59.928;30.306;2022-12-07T02:25:21;101096.66;;;-4.45;91.55
41254;BME280;26987;59.928;30.306;2022-12-07T02:27:54;101090.56;;;-4.46;91.15
41254;BME280;26987;59.928;30.306;2022-12-07T02:30:28;101094.78;;;-4.43;90.81
41254;BME280;26987;59.928;30.306;2022-12-07T02:33:00;101085.88;;;-4.40;90.38
41254;BME280;26987;59.928;30.306;2022-12-07T02:35:33;101095.31;;;-4.38;90.00
41254;BME280;26987;59.928;30.306;2022-12-07T02:38:08;101089.25;;;-4.38;90.20
41254;BME280;26987;59.928;30.306;2022-12-07T02:40:41;101089.16;;;-4.37;90.51
41254;BME280;26987;59.928;30.306;2022-12-07T02:43:14;101093.34;;;-4.34;90.00
41254;BME280;26987;59.928;30.306;2022-12-07T02:45:46;101076.34;;;-4.41;90.28
41254;BME280;26987;59.928;30.306;2022-12-07T02:48:16;101086.44;;;-4.35;90.38
41254;BME280;26987;59.928;30.306;2022-12-07T02:50:45;101085.28;;;-4.31;90.18
41254;BME280;26987;59.928;30.306;2022-12-07T02:53:30;101080.66;;;-4.27;90.62
41254;BME280;26987;59.928;30.306;2022-12-07T02:55:59;101080.78;;;-4.29;90.60
41254;BME280;26987;59.928;30.306;2022-12-07T02:58:37;101077.34;;;-4.29;90.52
41254;BME280;26987;59.928;30.306;2022-12-07T03:01:20;101083.94;;;-4.24;89.74
41254;BME280;26987;59.928;30.306;2022-12-07T03:03:59;101082.78;;;-4.20;90.25
41254;BME280;26987;59.928;30.306;2022-12-07T03:06:34;101074.72;;;-4.29;90.13
41254;BME280;26987;59.928;30.306;2022-12-07T03:09:13;101074.72;;;-4.29;89.96
41254;BME280;26987;59.928;30.306;2022-12-07T03:11:45;101082.13;;;-4.36;90.37
41254;BME280;26987;59.928;30.306;2022-12-07T03:14:17;101067.66;;;-4.42;90.78
41254;BME280;26987;59.928;30.306;2022-12-07T03:16:52;101072.91;;;-4.29;90.59
41254;BME280;26987;59.928;30.306;2022-12-07T03:19:24;101075.13;;;-4.23;90.30
41254;BME280;26987;59.928;30.306;2022-12-07T03:21:57;101051.25;;;-4.31;90.17
41254;BME280;26987;59.928;30.306;2022-12-07T03:24:29;101074.94;;;-4.20;90.06
41254;BME280;26987;59.928;30.306;2022-12-07T03:27:01;101070.94;;;-4.25;90.21
41254;BME280;26987;59.928;30.306;2022-12-07T03:29:34;101080.38;;;-4.23;90.93
41254;BME280;26987;59.928;30.306;2022-12-07T03:32:10;101075.13;;;-4.23;91.44
41254;BME280;26987;59.928;30.306;2022-12-07T03:34:44;101069.88;;;-4.23;90.74
41254;BME280;26987;59.928;30.306;2022-12-07T03:37:17;101062.69;;;-4.19;90.57
41254;BME280;26987;59.928;30.306;2022-12-07T03:39:57;101068.03;;;-4.21;90.90
41254;BME280;26987;59.928;30.306;2022-12-07T03:42:26;101067.06;;;-4.20;91.45
41254;BME280;26987;59.928;30.306;2022-12-07T03:44:54;101072.50;;;-4.23;91.05
41254;BME280;26987;59.928;30.306;2022-12-07T03:47:27;101067.72;;;-4.16;91.68
41254;BME280;26987;59.928;30.306;2022-12-07T03:50:00;101051.03;;;-4.28;91.61
41254;BME280;26987;59.928;30.306;2022-12-07T03:52:35;101045.75;;;-4.41;92.23
41254;BME280;26987;59.928;30.306;2022-12-07T03:55:08;101058.03;;;-4.41;93.19
41254;BME280;26987;59.928;30.306;2022-12-07T03:57:39;101043.44;;;-4.46;93.70
41254;BME280;26987;59.928;30.306;2022-12-07T04:00:10;101027.59;;;-4.57;93.17
41254;BME280;26987;59.928;30.306;2022-12-07T04:02:40;101037.53;;;-4.62;93.56
41254;BME280;26987;59.928;30.306;2022-12-07T04:05:09;101046.88;;;-4.58;93.93
41254;BME280;26987;59.928;30.306;2022-12-07T04:07:37;101042.38;;;-4.56;94.60
41254;BME280;26987;59.928;30.306;2022-12-07T04:10:06;101038.38;;;-4.62;93.88
41254;BME280;26987;59.928;30.306;2022-12-07T04:12:34;101044.25;;;-4.58;94.67
41254;BME280;26987;59.928;30.306;2022-12-07T04:15:02;101045.19;;;-4.59;95.62
41254;BME280;26987;59.928;30.306;2022-12-07T04:17:30;101051.63;;;-4.50;94.53
41254;BME280;26987;59.928;30.306;2022-12-07T04:19:59;101044.69;;;-4.51;94.18
41254;BME280;26987;59.928;30.306;2022-12-07T04:22:27;101047.00;;;-4.47;94.33
41254;BME280;26987;59.928;30.306;2022-12-07T04:24:54;101040.72;;;-4.44;93.82
41254;BME280;26987;59.928;30.306;2022-12-07T04:27:22;101041.56;;;-4.44;93.54
41254;BME280;26987;59.928;30.306;2022-12-07T04:29:50;101027.31;;;-4.52;93.97
41254;BME280;26987;59.928;30.306;2022-12-07T04:32:17;101038.00;;;-4.43;94.10
41254;BME280;26987;59.928;30.306;2022-12-07T04:34:45;101034.47;;;-4.41;93.64
41254;BME280;26987;59.928;30.306;2022-12-07T04:37:14;101019.84;;;-4.59;94.16
41254;BME280;26987;59.928;30.306;2022-12-07T04:39:42;101025.28;;;-4.62;94.21
41254;BME280;26987;59.928;30.306;2022-12-07T04:42:11;101024.56;;;-4.64;94.29
41254;BME280;26987;59.928;30.306;2022-12-07T04:44:39;101021.09;;;-4.64;94.61
41254;BME280;26987;59.928;30.306;2022-12-07T04:47:06;101019.44;;;-4.65;94.46
41254;BME280;26987;59.928;30.306;2022-12-07T04:49:34;101016.16;;;-4.69;93.89
41254;BME280;26987;59.928;30.306;2022-12-07T04:52:02;101025.47;;;-4.65;94.85
41254;BME280;26987;59.928;30.306;2022-12-07T04:54:31;101018.47;;;-4.64;94.65
41254;BME280;26987;59.928;30.306;2022-12-07T04:56:59;101028.88;;;-4.50;94.36
41254;BME280;26987;59.928;30.306;2022-12-07T04:59:27;101028.97;;;-4.51;93.93
41254;BME280;26987;59.928;30.306;2022-12-07T05:01:54;101034.88;;;-4.48;93.72
41254;BME280;26987;59.928;30.306;2022-12-07T05:04:22;101036.63;;;-4.48;93.77
41254;BME280;26987;59.928;30.306;2022-12-07T05:06:50;101044.59;;;-4.50;93.67
41254;BME280;26987;59.928;30.306;2022-12-07T05:09:18;101035.78;;;-4.49;93.48
41254;BME280;26987;59.928;30.306;2022-12-07T05:11:47;101038.00;;;-4.43;94.05
41254;BME280;26987;59.928;30.306;2022-12-07T05:14:17;101048.06;;;-4.36;93.82
41254;BME280;26987;59.928;30.306;2022-12-07T05:16:46;101006.66;;;-4.57;92.93
41254;BME280;26987;59.928;30.306;2022-12-07T05:19:15;101035.19;;;-4.39;93.55
41254;BME280;26987;59.928;30.306;2022-12-07T05:21:44;101045.47;;;-4.36;92.42
41254;BME280;26987;59.928;30.306;2022-12-07T05:24:13;101043.03;;;-4.39;93.13
41254;BME280;26987;59.928;30.306;2022-12-07T05:26:41;100956.00;;;-4.97;92.24
41254;BME280;26987;59.928;30.306;2022-12-07T05:29:13;101017.25;;;-4.59;92.61
41254;BME280;26987;59.928;30.306;2022-12-07T05:31:41;101044.19;;;-4.44;92.81
41254;BME280;26987;59.928;30.306;2022-12-07T05:34:09;101040.00;;;-4.46;93.92
41254;BME280;26987;59.928;30.306;2022-12-07T05:36:37;101040.09;;;-4.48;94.06
41254;BME280;26987;59.928;30.306;2022-12-07T05:39:05;101037.47;;;-4.48;94.22
41254;BME280;26987;59.928;30.306;2022-12-07T05:41:33;101041.97;;;-4.50;94.21
41254;BME280;26987;59.928;30.306;2022-12-07T05:44:20;101045.03;;;-4.43;94.19
41254;BME280;26987;59.928;30.306;2022-12-07T05:46:48;101044.50;;;-4.48;94.46
41254;BME280;26987;59.928;30.306;2022-12-07T05:49:15;101034.13;;;-4.50;93.94
41254;BME280;26987;59.928;30.306;2022-12-07T05:51:43;101002.44;;;-4.73;93.74
41254;BME280;26987;59.928;30.306;2022-12-07T05:54:11;101041.97;;;-4.50;94.12
41254;BME280;26987;59.928;30.306;2022-12-07T05:56:39;101036.00;;;-4.52;95.14
41254;BME280;26987;59.928;30.306;2022-12-07T05:59:08;101031.59;;;-4.51;94.66
41254;BME280;26987;59.928;30.306;2022-12-07T06:01:54;100996.47;;;-4.75;93.50
41254;BME280;26987;59.928;30.306;2022-12-07T06:04:23;101029.06;;;-4.53;93.81
41254;BME280;26987;59.928;30.306;2022-12-07T06:06:52;101028.16;;;-4.52;93.72
41254;BME280;26987;59.928;30.306;2022-12-07T06:09:21;101039.91;;;-4.45;92.83
41254;BME280;26987;59.928;30.306;2022-12-07T06:11:49;101018.72;;;-4.54;92.82
41254;BME280;26987;59.928;30.306;2022-12-07T06:14:34;101040.41;;;-4.39;91.95
41254;BME280;26987;59.928;30.306;2022-12-07T06:17:04;101032.75;;;-4.43;92.57
41254;BME280;26987;59.928;30.306;2022-12-07T06:19:32;101033.72;;;-4.44;92.37
41254;BME280;26987;59.928;30.306;2022-12-07T06:21:59;101032.38;;;-4.36;91.99
41254;BME280;26987;59.928;30.306;2022-12-07T06:24:27;101039.69;;;-4.41;92.25
41254;BME280;26987;59.928;30.306;2022-12-07T06:26:55;101031.66;;;-4.38;92.07
41254;BME280;26987;59.928;30.306;2022-12-07T06:29:23;101026.06;;;-4.47;92.15
41254;BME280;26987;59.928;30.306;2022-12-07T06:31:50;101031.94;;;-4.43;91.94
41254;BME280;26987;59.928;30.306;2022-12-07T06:34:21;101020.06;;;-4.49;91.62
41254;BME280;26987;59.928;30.306;2022-12-07T06:36:50;101030.34;;;-4.46;92.20
41254;BME280;26987;59.928;30.306;2022-12-07T06:39:20;101016.00;;;-4.53;91.69
41254;BME280;26987;59.928;30.306;2022-12-07T06:41:50;101017.69;;;-4.52;92.00
41254;BME280;26987;59.928;30.306;2022-12-07T06:44:19;101008.72;;;-4.62;92.30
41254;BME280;26987;59.928;30.306;2022-12-07T06:46:48;101030.91;;;-4.40;92.37
41254;BME280;26987;59.928;30.306;2022-12-07T06:49:15;101033.41;;;-4.39;91.57
41254;BME280;26987;59.928;30.306;2022-12-07T06:51:45;101038.25;;;-4.33;91.81
41254;BME280;26987;59.928;30.306;2022-12-07T06:54:13;101032.38;;;-4.36;91.39
41254;BME280;26987;59.928;30.306;2022-12-07T06:56:42;101027.13;;;-4.36;90.86
41254;BME280;26987;59.928;30.306;2022-12-07T06:59:09;101035.94;;;-4.24;91.02
41254;BME280;26987;59.928;30.306;2022-12-07T07:01:37;101037.94;;;-4.28;90.09
41254;BME280;26987;59.928;30.306;2022-12-07T07:04:05;101033.84;;;-4.32;89.75
41254;BME280;26987;59.928;30.306;2022-12-07T07:06:33;101040.56;;;-4.28;89.77
41254;BME280;26987;59.928;30.306;2022-12-07T07:09:02;101041.09;;;-4.23;89.22
41254;BME280;26987;59.928;30.306;2022-12-07T07:11:30;101024.84;;;-4.28;89.47
41254;BME280;26987;59.928;30.306;2022-12-07T07:13:58;101045.41;;;-4.22;89.46
41254;BME280;26987;59.928;30.306;2022-12-07T07:16:28;101006.19;;;-4.36;88.93
41254;BME280;26987;59.928;30.306;2022-12-07T07:18:57;101015.72;;;-4.35;88.07
41254;BME280;26987;59.928;30.306;2022-12-07T07:21:24;101049.38;;;-4.16;88.39
41254;BME280;26987;59.928;30.306;2022-12-07T07:23:52;101035.78;;;-4.08;89.04
41254;BME280;26987;59.928;30.306;2022-12-07T07:26:21;101041.53;;;-4.03;87.96
41254;BME280;26987;59.928;30.306;2022-12-07T07:28:49;101034.28;;;-4.12;87.34
41254;BME280;26987;59.928;30.306;2022-12-07T07:31:17;101028.03;;;-4.10;87.91
41254;BME280;26987;59.928;30.306;2022-12-07T07:33:45;101036.38;;;-4.05;87.72
41254;BME280;26987;59.928;30.306;2022-12-07T07:36:13;101038.50;;;-4.10;87.68
41254;BME280;26987;59.928;30.306;2022-12-07T07:38:41;101028.84;;;-4.09;88.08
41254;BME280;26987;59.928;30.306;2022-12-07T07:41:08;101040.56;;;-4.02;88.02
41254;BME280;26987;59.928;30.306;2022-12-07T07:43:37;101043.00;;;-3.99;88.36
41254;BME280;26987;59.928;30.306;2022-12-07T07:46:05;101036.09;;;-4.00;86.96
41254;BME280;26987;59.928;30.306;2022-12-07T07:48:33;101040.16;;;-3.96;87.36
41254;BME280;26987;59.928;30.306;2022-12-07T07:51:05;101036.38;;;-3.92;87.25
41254;BME280;26987;59.928;30.306;2022-12-07T07:53:32;100996.69;;;-4.11;87.62
41254;BME280;26987;59.928;30.306;2022-12-07T07:56:00;101029.28;;;-3.89;87.03
41254;BME280;26987;59.928;30.306;2022-12-07T07:58:28;101043.53;;;-3.81;86.72
41254;BME280;26987;59.928;30.306;2022-12-07T08:00:57;101028.84;;;-3.83;86.64
41254;BME280;26987;59.928;30.306;2022-12-07T08:03:30;101018.19;;;-3.93;86.86
41254;BME280;26987;59.928;30.306;2022-12-07T08:05:58;101035.56;;;-3.79;87.36
41254;BME280;26987;59.928;30.306;2022-12-07T08:08:28;101030.53;;;-3.82;87.31
41254;BME280;26987;59.928;30.306;2022-12-07T08:10:56;101025.91;;;-3.78;86.33
41254;BME280;26987;59.928;30.306;2022-12-07T08:13:26;101033.56;;;-3.75;86.40
41254;BME280;26987;59.928;30.306;2022-12-07T08:15:54;101030.63;;;-3.84;86.67
41254;BME280;26987;59.928;30.306;2022-12-07T08:18:23;101027.41;;;-3.87;87.17
41254;BME280;26987;59.928;30.306;2022-12-07T08:20:51;101032.31;;;-3.96;88.02
41254;BME280;26987;59.928;30.306;2022-12-07T08:23:18;101038.41;;;-3.95;88.68
41254;BME280;26987;59.928;30.306;2022-12-07T08:25:46;101028.88;;;-3.96;89.46
41254;BME280;26987;59.928;30.306;2022-12-07T08:28:14;101034.63;;;-4.04;90.14
41254;BME280;26987;59.928;30.306;2022-12-07T08:30:42;101012.06;;;-4.20;89.94
41254;BME280;26987;59.928;30.306;2022-12-07T08:33:10;100916.06;;;-4.86;90.18
41254;BME280;26987;59.928;30.306;2022-12-07T08:35:40;101029.69;;;-4.22;91.71
41254;BME280;26987;59.928;30.306;2022-12-07T08:38:07;101028.19;;;-4.26;90.91
41254;BME280;26987;59.928;30.306;2022-12-07T08:40:35;101022.44;;;-4.31;91.62
41254;BME280;26987;59.928;30.306;2022-12-07T08:43:03;101019.16;;;-4.35;92.39
41254;BME280;26987;59.928;30.306;2022-12-07T08:45:31;101022.84;;;-4.37;92.37
41254;BME280;26987;59.928;30.306;2022-12-07T08:48:04;101014.19;;;-4.25;93.21
41254;BME280;26987;59.928;30.306;2022-12-07T08:50:34;100999.88;;;-4.34;92.65
41254;BME280;26987;59.928;30.306;2022-12-07T08:53:04;100993.09;;;-4.36;93.05
41254;BME280;26987;59.928;30.306;2022-12-07T08:55:33;101014.28;;;-4.26;92.67
41254;BME280;26987;59.928;30.306;2022-12-07T08:58:02;101007.03;;;-4.23;92.66
41254;BME280;26987;59.928;30.306;2022-12-07T09:00:31;100984.31;;;-4.35;91.99
41254;BME280;26987;59.928;30.306;2022-12-07T09:02:58;101007.25;;;-4.26;93.00
41254;BME280;26987;59.928;30.306;2022-12-07T09:05:26;101002.66;;;-4.22;93.07
41254;BME280;26987;59.928;30.306;2022-12-07T09:07:57;100999.19;;;-4.23;93.02
41254;BME280;26987;59.928;30.306;2022-12-07T09:10:28;100982.19;;;-4.30;93.39
41254;BME280;26987;59.928;30.306;2022-12-07T09:12:56;100995.50;;;-4.20;93.96
41254;BME280;26987;59.928;30.306;2022-12-07T09:15:27;100998.16;;;-4.07;94.52
41254;BME280;26987;59.928;30.306;2022-12-07T09:17:54;100980.03;;;-4.10;93.66
41254;BME280;26987;59.928;30.306;2022-12-07T09:20:22;100996.88;;;-4.01;93.35
41254;BME280;26987;59.928;30.306;2022-12-07T09:22:50;100995.13;;;-4.01;93.33
41254;BME280;26987;59.928;30.306;2022-12-07T09:25:18;100997.00;;;-4.03;93.11
41254;BME280;26987;59.928;30.306;2022-12-07T09:27:48;100969.75;;;-4.26;92.64
41254;BME280;26987;59.928;30.306;2022-12-07T09:30:22;100996.34;;;-4.07;93.01
41254;BME280;26987;59.928;30.306;2022-12-07T09:32:49;100992.38;;;-4.12;91.96
41254;BME280;26987;59.928;30.306;2022-12-07T09:35:17;100955.50;;;-4.35;92.97
41254;BME280;26987;59.928;30.306;2022-12-07T09:37:45;100992.16;;;-4.09;92.38
41254;BME280;26987;59.928;30.306;2022-12-07T09:40:13;100979.06;;;-4.09;92.93
41254;BME280;26987;59.928;30.306;2022-12-07T09:42:45;100992.59;;;-3.89;92.64
41254;BME280;26987;59.928;30.306;2022-12-07T09:45:19;100972.78;;;-3.94;91.66
41254;BME280;26987;59.928;30.306;2022-12-07T09:47:48;100983.56;;;-3.85;91.40
41254;BME280;26987;59.928;30.306;2022-12-07T09:50:19;100984.94;;;-3.93;90.54
41254;BME280;26987;59.928;30.306;2022-12-07T09:52:49;100961.13;;;-4.15;90.80
41254;BME280;26987;59.928;30.306;2022-12-07T09:55:22;100982.72;;;-3.99;90.83
41254;BME280;26987;59.928;30.306;2022-12-07T09:57:52;100964.31;;;-4.10;90.79
41254;BME280;26987;59.928;30.306;2022-12-07T10:00:23;100982.22;;;-4.04;90.40
41254;BME280;26987;59.928;30.306;2022-12-07T10:02:55;100973.63;;;-4.06;90.60
41254;BME280;26987;59.928;30.306;2022-12-07T10:05:25;100955.81;;;-4.14;90.89
41254;BME280;26987;59.928;30.306;2022-12-07T10:07:55;100961.13;;;-4.15;90.42
41254;BME280;26987;59.928;30.306;2022-12-07T10:10:24;100930.03;;;-4.33;90.43
41254;BME280;26987;59.928;30.306;2022-12-07T10:12:56;100965.66;;;-4.18;91.27
41254;BME280;26987;59.928;30.306;2022-12-07T10:15:41;100945.88;;;-4.22;91.36
41254;BME280;26987;59.928;30.306;2022-12-07T10:18:21;100959.47;;;-4.16;91.44
41254;BME280;26987;59.928;30.306;2022-12-07T10:21:05;100939.34;;;-4.42;90.36
41254;BME280;26987;59.928;30.306;2022-12-07T10:23:34;100951.72;;;-4.31;90.49
41254;BME280;26987;59.928;30.306;2022-12-07T10:26:21;100946.38;;;-4.29;90.85
41254;BME280;26987;59.928;30.306;2022-12-07T10:28:54;100954.41;;;-4.46;91.21
41254;BME280;26987;59.928;30.306;2022-12-07T10:31:23;100947.94;;;-4.53;91.38
41254;BME280;26987;59.928;30.306;2022-12-07T10:33:53;100903.94;;;-4.74;92.34
41254;BME280;26987;59.928;30.306;2022-12-07T10:36:24;100943.75;;;-4.43;92.86
41254;BME280;26987;59.928;30.306;2022-12-07T10:38:53;100950.47;;;-4.38;91.77
41254;BME280;26987;59.928;30.306;2022-12-07T10:41:26;100941.53;;;-4.49;92.08
41254;BME280;26987;59.928;30.306;2022-12-07T10:43:56;100938.72;;;-4.46;92.97
41254;BME280;26987;59.928;30.306;2022-12-07T10:46:49;100941.97;;;-4.42;92.16
41254;BME280;26987;59.928;30.306;2022-12-07T10:49:46;100944.16;;;-4.49;92.00
41254;BME280;26987;59.928;30.306;2022-12-07T10:52:30;100935.88;;;-4.69;91.58
41254;BME280;26987;59.928;30.306;2022-12-07T10:55:10;100946.75;;;-4.75;91.63
41254;BME280;26987;59.928;30.306;2022-12-07T10:57:51;100922.53;;;-4.91;91.33
41254;BME280;26987;59.928;30.306;2022-12-07T11:00:25;100925.88;;;-4.89;91.79
41254;BME280;26987;59.928;30.306;2022-12-07T11:03:26;100916.06;;;-4.86;92.05
41254;BME280;26987;59.928;30.306;2022-12-07T11:06:03;100914.09;;;-4.82;91.24
41254;BME280;26987;59.928;30.306;2022-12-07T11:08:47;100915.94;;;-4.84;90.69
41254;BME280;26987;59.928;30.306;2022-12-07T11:11:25;100916.69;;;-4.82;90.71
41254;BME280;26987;59.928;30.306;2022-12-07T11:14:03;100906.44;;;-4.85;90.56
41254;BME280;26987;59.928;30.306;2022-12-07T11:16:44;100919.13;;;-4.79;91.07
41254;BME280;26987;59.928;30.306;2022-12-07T11:19:44;100922.78;;;-4.69;91.15
41254;BME280;26987;59.928;30.306;2022-12-07T11:22:21;100914.28;;;-4.72;90.97
41254;BME280;26987;59.928;30.306;2022-12-07T11:24:57;100919.13;;;-4.66;90.68
41254;BME280;26987;59.928;30.306;2022-12-07T11:27:35;100911.69;;;-4.59;90.00
41254;BME280;26987;59.928;30.306;2022-12-07T11:30:16;100893.91;;;-4.67;89.18
41254;BME280;26987;59.928;30.306;2022-12-07T11:33:07;100907.31;;;-4.59;89.49
41254;BME280;26987;59.928;30.306;2022-12-07T11:35:46;100908.56;;;-4.64;87.99
41254;BME280;26987;59.928;30.306;2022-12-07T11:38:20;100896.72;;;-4.70;87.74
41254;BME280;26987;59.928;30.306;2022-12-07T11:40:53;100899.66;;;-4.75;87.62
41254;BME280;26987;59.928;30.306;2022-12-07T11:43:26;100909.56;;;-4.80;88.25
41254;BME280;26987;59.928;30.306;2022-12-07T11:45:59;100874.59;;;-4.92;87.31
41254;BME280;26987;59.928;30.306;2022-12-07T11:48:33;100893.47;;;-4.87;88.13
41254;BME280;26987;59.928;30.306;2022-12-07T11:51:03;100886.13;;;-4.95;87.27
41254;BME280;26987;59.928;30.306;2022-12-07T11:53:38;100888.72;;;-4.95;87.64
41254;BME280;26987;59.928;30.306;2022-12-07T11:56:09;100855.25;;;-5.30;86.81
41254;BME280;26987;59.928;30.306;2022-12-07T11:58:45;100882.69;;;-5.23;87.93
41254;BME280;26987;59.928;30.306;2022-12-07T12:01:24;100888.56;;;-5.19;88.39
41254;BME280;26987;59.928;30.306;2022-12-07T12:03:57;100881.66;;;-5.20;87.80
41254;BME280;26987;59.928;30.306;2022-12-07T12:06:27;100898.72;;;-5.14;87.52
41254;BME280;26987;59.928;30.306;2022-12-07T12:08:59;100884.88;;;-5.16;87.87
41254;BME280;26987;59.928;30.306;2022-12-07T12:11:44;100875.06;;;-5.26;87.89
41254;BME280;26987;59.928;30.306;2022-12-07T12:14:28;100875.16;;;-5.27;89.14
41254;BME280;26987;59.928;30.306;2022-12-07T12:17:30;100878.06;;;-5.32;89.82
41254;BME280;26987;59.928;30.306;2022-12-07T12:20:13;100893.56;;;-5.29;90.40
41254;BME280;26987;59.928;30.306;2022-12-07T12:22:47;100867.34;;;-5.42;90.05
41254;BME280;26987;59.928;30.306;2022-12-07T12:25:21;100876.59;;;-5.36;90.79
41254;BME280;26987;59.928;30.306;2022-12-07T12:27:51;100886.53;;;-5.28;90.67
41254;BME280;26987;59.928;30.306;2022-12-07T12:30:30;100877.13;;;-5.31;90.90
41254;BME280;26987;59.928;30.306;2022-12-07T12:33:05;100878.06;;;-5.32;91.24
41254;BME280;26987;59.928;30.306;2022-12-07T12:35:34;100869.09;;;-5.15;89.79
41254;BME280;26987;59.928;30.306;2022-12-07T12:38:27;100869.28;;;-5.31;90.24
41254;BME280;26987;59.928;30.306;2022-12-07T12:40:56;100866.75;;;-5.33;90.20
41254;BME280;26987;59.928;30.306;2022-12-07T12:43:49;100864.03;;;-5.31;91.04
41254;BME280;26987;59.928;30.306;2022-12-07T12:46:38;100865.50;;;-5.27;90.57
41254;BME280;26987;59.928;30.306;2022-12-07T12:49:35;100870.66;;;-5.25;90.75
41254;BME280;26987;59.928;30.306;2022-12-07T12:55:18;100868.94;;;-5.39;91.08
41254;BME280;26987;59.928;30.306;2022-12-07T12:57:53;100851.44;;;-5.52;90.39
41254;BME280;26987;59.928;30.306;2022-12-07T13:00:41;100857.91;;;-5.58;90.83
41254;BME280;26987;59.928;30.306;2022-12-07T13:03:21;100842.59;;;-5.64;91.21
41254;BME280;26987;59.928;30.306;2022-12-07T13:06:19;100846.00;;;-5.49;91.85
41254;BME280;26987;59.928;30.306;2022-12-07T13:08:47;100852.91;;;-5.48;90.90
41254;BME280;26987;59.928;30.306;2022-12-07T13:11:26;100854.19;;;-5.40;90.89